Time;durP1;ratioP1;P1;durP2;ratioP2;P2;SDS_P1;SDS_P2;PMS_P1;PMS_P2;Temp;Humidity;BMP_temperature;BMP_pressure;BME280_temperature;BME280_humidity;BME280_pressure;Samples;Min_cycle;Max_cycle;Signal;HPM_P1;HPM_P2
2022/12/05 00:01:27;;;;;;;60.93;26.00;;;;;;;11.41;48.21;101930.16;5110392;28;20043;-73
2022/12/05 00:03:54;;;;;;;64.60;25.97;;;;;;;11.11;48.42;101926.53;5105987;28;20027;-73
2022/12/05 00:06:21;;;;;;;64.43;25.47;;;;;;;11.40;47.99;101925.78;5110408;28;20042;-73
2022/12/05 00:08:47;;;;;;;54.20;24.03;;;;;;;11.41;47.37;101931.03;5110302;28;20031;-72
2022/12/05 00:11:17;;;;;;;60.00;25.70;;;;;;;10.74;50.07;101936.75;5110282;28;20032;-72
2022/12/05 00:13:44;;;;;;;54.60;24.63;;;;;;;11.32;47.95;101929.25;5112097;28;20023;-72
2022/12/05 00:16:12;;;;;;;57.53;24.50;;;;;;;11.43;48.30;101929.28;5110952;28;20065;-73
2022/12/05 00:18:38;;;;;;;55.90;24.83;;;;;;;11.30;48.27;101922.25;5106435;28;20391;-73
2022/12/05 00:21:05;;;;;;;59.13;25.37;;;;;;;11.41;47.87;101925.78;5110835;28;20072;-72
2022/12/05 00:23:30;;;;;;;59.67;25.77;;;;;;;11.34;47.81;101924.88;5109230;28;20098;-72
2022/12/05 00:25:55;;;;;;;48.70;23.27;;;;;;;10.96;49.25;101928.19;5110141;28;20150;-73
2022/12/05 00:28:21;;;;;;;54.93;24.00;;;;;;;11.44;48.64;101919.69;5108005;28;20076;-73
2022/12/05 00:30:46;;;;;;;59.77;24.20;;;;;;;11.48;48.22;101931.91;5107385;28;20069;-72
2022/12/05 00:33:11;;;;;;;56.00;24.10;;;;;;;11.66;47.59;101926.75;5108990;28;20028;-72
2022/12/05 00:35:37;;;;;;;54.43;23.97;;;;;;;11.08;49.59;101931.75;5108086;28;20032;-73
2022/12/05 00:38:02;;;;;;;55.30;23.13;;;;;;;11.56;48.26;101932.81;5098269;28;20020;-72
2022/12/05 00:40:28;;;;;;;52.97;22.90;;;;;;;11.56;47.54;101935.44;5109347;28;20489;-73
2022/12/05 00:42:53;;;;;;;53.27;23.13;;;;;;;11.29;48.36;101937.09;5109408;27;20023;-73
2022/12/05 00:45:18;;;;;;;49.60;22.93;;;;;;;10.63;50.00;101929.72;5110443;28;20070;-73
2022/12/05 00:47:44;;;;;;;52.30;23.00;;;;;;;10.83;48.89;101929.84;5107908;28;20023;-73
2022/12/05 00:50:09;;;;;;;49.17;22.60;;;;;;;10.43;50.83;101926.94;5107314;28;20035;-72
2022/12/05 00:52:35;;;;;;;47.90;22.20;;;;;;;11.36;49.10;101928.41;5107393;28;20057;-72
2022/12/05 00:55:00;;;;;;;47.63;22.37;;;;;;;11.51;49.11;101924.97;5109745;28;20390;-72
2022/12/05 00:57:25;;;;;;;50.30;23.00;;;;;;;11.63;47.83;101924.09;5108064;28;20030;-72
2022/12/05 00:59:51;;;;;;;51.60;22.03;;;;;;;11.08;49.42;101931.75;5098961;28;20036;-72
2022/12/05 01:02:16;;;;;;;53.50;23.63;;;;;;;10.74;50.09;101937.63;5095325;28;20043;-72
2022/12/05 01:04:41;;;;;;;56.70;24.63;;;;;;;11.26;48.80;101921.34;5109454;28;20464;-72
2022/12/05 01:07:07;;;;;;;50.53;22.53;;;;;;;11.63;47.94;101921.50;5106290;28;20019;-72
2022/12/05 01:09:32;;;;;;;56.33;23.53;;;;;;;11.95;46.76;101928.59;5108230;28;20031;-73
2022/12/05 01:11:58;;;;;;;47.40;23.57;;;;;;;11.84;47.69;101923.31;5109624;28;20011;-73
2022/12/05 01:14:25;;;;;;;49.20;22.30;;;;;;;12.06;46.90;101915.50;5108315;28;20028;-73
2022/12/05 01:16:53;;;;;;;51.63;24.07;;;;;;;10.44;50.76;101927.81;5107908;28;20028;-72
2022/12/05 01:19:22;;;;;;;51.50;23.47;;;;;;;11.38;49.01;101926.63;5106511;28;20114;-72
2022/12/05 01:21:47;;;;;;;48.47;21.03;;;;;;;12.26;46.84;101918.13;5108232;28;20428;-72
2022/12/05 01:24:14;;;;;;;51.63;23.37;;;;;;;12.08;46.78;101912.91;5109124;28;20080;-73
2022/12/05 01:26:41;;;;;;;54.03;22.63;;;;;;;11.45;48.57;101916.22;5107346;28;20036;-73
2022/12/05 01:29:06;;;;;;;52.93;23.03;;;;;;;11.40;49.53;101923.16;5108753;28;20402;-73
2022/12/05 01:31:34;;;;;;;54.50;23.77;;;;;;;10.96;50.39;101925.59;5110470;28;20088;-73
2022/12/05 01:34:02;;;;;;;61.97;23.60;;;;;;;11.88;47.92;101921.53;5105566;28;20024;-72
2022/12/05 01:36:28;;;;;;;47.33;22.40;;;;;;;12.21;46.73;101919.88;5108453;27;20031;-73
2022/12/05 01:38:54;;;;;;;50.70;22.37;;;;;;;12.22;47.19;101929.50;5108678;28;20024;-72
2022/12/05 01:41:27;;;;;;;49.77;22.83;;;;;;;12.21;47.64;101930.34;5097306;28;20040;-72
2022/12/05 01:43:52;;;;;;;52.75;23.02;;;;;;;12.52;45.69;101930.38;5106791;28;20073;-73
2022/12/05 01:46:17;;;;;;;49.53;22.00;;;;;;;11.31;49.01;101930.09;5110228;28;20126;-73
2022/12/05 01:48:43;;;;;;;48.90;22.00;;;;;;;10.94;50.18;101927.31;5106811;28;20065;-72
2022/12/05 01:51:09;;;;;;;45.80;20.97;;;;;;;11.98;48.40;101928.59;5106240;28;20118;-72
2022/12/05 01:53:35;;;;;;;49.33;22.80;;;;;;;11.87;48.06;101932.94;5100525;28;20478;-72
2022/12/05 01:56:01;;;;;;;53.17;20.93;;;;;;;11.29;49.14;101931.84;5098669;28;20024;-73
2022/12/05 01:58:34;;;;;;;44.53;18.77;;;;;;;10.24;53.29;101928.50;5089612;28;20372;-72
2022/12/05 02:01:00;;;;;;;51.80;22.70;;;;;;;11.77;49.33;101928.53;5108736;28;20106;-72
2022/12/05 02:03:26;;;;;;;52.53;21.80;;;;;;;11.66;49.68;101921.53;5109184;28;20081;-72
2022/12/05 02:05:53;;;;;;;52.70;21.90;;;;;;;11.75;49.19;101930.28;5107343;28;20395;-72
2022/12/05 02:08:20;;;;;;;50.70;22.20;;;;;;;10.01;52.76;101939.63;5105668;28;20031;-73
2022/12/05 02:10:49;;;;;;;52.80;22.53;;;;;;;11.12;51.18;101937.00;5108983;28;20027;-72
2022/12/05 02:13:23;;;;;;;47.90;21.67;;;;;;;11.81;48.50;101938.13;5110325;28;20059;-72
2022/12/05 02:15:59;;;;;;;51.33;23.07;;;;;;;12.31;48.47;101929.50;5103858;28;20023;-72
2022/12/05 02:18:46;;;;;;;51.67;21.47;;;;;;;11.92;49.78;101932.91;5109551;28;20027;-72
2022/12/05 02:21:33;;;;;;;48.67;21.73;;;;;;;12.80;46.80;101931.19;5108462;28;20032;-72
2022/12/05 02:24:27;;;;;;;48.47;21.23;;;;;;;10.91;50.92;101939.47;5107237;28;20406;-72
2022/12/05 02:27:36;;;;;;;51.57;23.33;;;;;;;11.67;50.17;101925.00;5108945;28;20059;-73
2022/12/05 02:30:07;;;;;;;45.97;21.07;;;;;;;11.69;49.73;101925.88;5068613;28;20578;-73
2022/12/05 02:32:51;;;;;;;46.30;21.10;;;;;;;12.78;47.43;101921.63;5111396;28;20028;-73
2022/12/05 02:35:38;;;;;;;50.97;22.70;;;;;;;11.67;49.28;101928.47;5102914;28;20024;-72
2022/12/05 02:38:33;;;;;;;48.80;22.13;;;;;;;11.56;49.24;101921.50;5093297;28;20031;-73
2022/12/05 02:41:13;;;;;;;48.50;22.37;;;;;;;12.22;48.20;101916.38;5111717;28;20037;-72
2022/12/05 02:43:39;;;;;;;49.20;21.93;;;;;;;11.54;51.02;101931.97;5110618;28;20754;-73
2022/12/05 02:46:20;;;;;;;47.93;21.13;;;;;;;10.85;52.47;101928.13;5105643;28;20042;-73
2022/12/05 02:48:49;;;;;;;44.13;21.60;;;;;;;12.22;49.49;101916.38;5110731;28;20031;-73
2022/12/05 02:51:20;;;;;;;43.63;20.00;;;;;;;12.46;48.58;101917.25;5109726;28;20036;-72
2022/12/05 02:53:47;;;;;;;49.17;21.50;;;;;;;11.45;51.31;101932.78;5111708;27;20023;-72
2022/12/05 02:56:13;;;;;;;53.47;21.33;;;;;;;11.03;50.64;101932.59;5107389;28;20055;-72
2022/12/05 02:58:52;;;;;;;44.77;21.07;;;;;;;11.37;50.66;101934.50;5112271;28;20023;-73
2022/12/05 03:01:22;;;;;;;50.87;22.50;;;;;;;10.69;52.56;101932.38;5101832;28;20094;-72
2022/12/05 03:03:47;;;;;;;47.07;22.07;;;;;;;11.14;52.32;101926.53;5110861;28;20398;-73
2022/12/05 03:06:18;;;;;;;48.37;21.17;;;;;;;12.10;50.09;101932.09;5093251;28;20028;-72
2022/12/05 03:08:49;;;;;;;46.43;20.37;;;;;;;11.60;51.25;101931.97;5112060;28;20032;-73
2022/12/05 03:11:15;;;;;;;48.33;21.90;;;;;;;12.36;49.46;101933.00;5110908;28;20505;-72
2022/12/05 03:13:47;;;;;;;49.07;20.53;;;;;;;12.24;49.70;101929.50;5107490;28;20169;-73
2022/12/05 03:16:22;;;;;;;48.10;23.20;;;;;;;10.92;52.93;101929.06;5092362;28;20111;-72
2022/12/05 03:18:55;;;;;;;49.17;21.50;;;;;;;12.19;50.15;101927.75;5091688;28;20580;-73
2022/12/05 03:21:48;;;;;;;47.37;21.50;;;;;;;12.23;50.36;101928.63;5111688;28;20470;-73
2022/12/05 03:24:14;;;;;;;46.33;19.88;;;;;;;11.54;51.29;101939.81;5110072;28;20052;-72
2022/12/05 03:26:49;;;;;;;48.40;21.37;;;;;;;12.14;50.44;101939.09;5108940;28;20425;-72
2022/12/05 03:29:29;;;;;;;52.77;22.53;;;;;;;12.32;48.96;101939.13;5108392;27;20513;-73
2022/12/05 03:32:04;;;;;;;52.57;21.60;;;;;;;12.47;49.25;101940.00;5110311;28;20046;-73
2022/12/05 03:34:38;;;;;;;43.23;20.50;;;;;;;12.09;49.55;101946.06;5110318;28;20031;-73
2022/12/05 03:37:12;;;;;;;50.13;21.03;;;;;;;12.50;49.58;101945.22;5108706;28;20493;-72
2022/12/05 03:39:43;;;;;;;47.40;20.97;;;;;;;11.52;50.23;101952.00;5106149;27;20039;-73
2022/12/05 03:42:12;;;;;;;50.27;21.17;;;;;;;11.68;52.01;101955.56;5106594;28;20062;-73
2022/12/05 03:44:46;;;;;;;53.03;22.50;;;;;;;12.01;51.03;101949.56;5110894;27;20740;-73
2022/12/05 03:47:18;;;;;;;42.37;20.67;;;;;;;12.89;48.35;101946.06;5108314;28;20031;-73
2022/12/05 03:49:51;;;;;;;48.13;21.50;;;;;;;12.34;49.95;101947.84;5111056;28;20041;-73
2022/12/05 03:52:27;;;;;;;46.97;21.47;;;;;;;12.47;49.18;101950.47;5113315;28;20059;-73
2022/12/05 03:54:56;;;;;;;45.17;20.63;;;;;;;11.77;51.73;101949.47;5109327;28;20065;-73
2022/12/05 03:57:42;;;;;;;47.13;21.27;;;;;;;11.70;51.48;101965.19;5110506;27;20100;-73
2022/12/05 04:00:21;;;;;;;45.13;20.97;;;;;;;11.53;52.30;101959.00;5119324;27;20046;-73
2022/12/05 04:02:59;;;;;;;43.57;19.60;;;;;;;12.15;50.04;101957.44;5113732;27;20406;-73
2022/12/05 04:05:48;;;;;;;45.40;18.83;;;;;;;11.22;53.28;101961.47;5131734;27;20130;-72
2022/12/05 04:08:39;;;;;;;41.90;19.60;;;;;;;12.33;50.77;101953.97;5111130;27;20065;-73
2022/12/05 04:11:11;;;;;;;43.37;19.43;;;;;;;12.38;49.07;101954.84;5112400;27;20035;-73
2022/12/05 04:13:50;;;;;;;44.28;20.55;;;;;;;12.00;50.94;101968.78;5129360;27;20462;-73
2022/12/05 04:19:22;;;;;;;41.43;18.90;;;;;;;12.66;49.17;101960.06;5129353;27;20096;-73
2022/12/05 04:21:51;;;;;;;47.17;19.47;;;;;;;13.24;47.94;101968.72;5112693;27;20146;-72
2022/12/05 04:27:30;;;;;;;42.13;19.47;;;;;;;12.63;49.44;101967.94;5132683;27;20046;-73
2022/12/05 04:30:04;;;;;;;44.17;20.00;;;;;;;12.88;48.11;101960.06;5112035;27;20023;-72
2022/12/05 04:32:48;;;;;;;45.13;20.20;;;;;;;13.30;47.22;101966.09;5111205;27;20047;-72
2022/12/05 04:35:25;;;;;;;44.80;20.47;;;;;;;13.61;47.18;101965.97;5112077;27;20027;-72
2022/12/05 04:37:57;;;;;;;52.97;21.47;;;;;;;13.19;47.85;101966.13;5113296;27;20034;-72
2022/12/05 04:40:29;;;;;;;49.80;19.87;;;;;;;13.14;48.17;101964.38;5125615;27;20047;-72
2022/12/05 04:42:58;;;;;;;44.53;18.83;;;;;;;12.97;47.96;101960.03;5102726;27;20030;-72
2022/12/05 04:45:25;;;;;;;43.23;17.87;;;;;;;12.94;48.42;101970.56;5123098;27;20042;-72
2022/12/05 04:47:57;;;;;;;46.20;19.57;;;;;;;12.44;48.79;101958.34;5132173;27;20113;-72
2022/12/05 04:50:25;;;;;;;41.85;17.33;;;;;;;12.77;48.88;101967.06;5128767;27;20029;-72
2022/12/05 04:52:56;;;;;;;40.73;18.63;;;;;;;13.39;47.38;101955.59;5130647;27;20019;-72
2022/12/05 04:55:28;;;;;;;39.07;18.90;;;;;;;13.76;46.64;101954.53;5110523;27;20574;-72
2022/12/05 04:58:08;;;;;;;38.38;17.58;;;;;;;13.83;46.56;101960.63;5113423;27;20019;-72
2022/12/05 05:00:45;;;;;;;45.37;20.43;;;;;;;13.51;47.69;101966.91;5104556;27;20074;-72
2022/12/05 05:03:20;;;;;;;40.40;18.27;;;;;;;13.19;48.58;101967.88;5097932;27;20027;-72
2022/12/05 05:05:48;;;;;;;39.43;18.77;;;;;;;12.87;48.64;101963.56;5107897;27;20390;-72
2022/12/05 05:08:21;;;;;;;39.20;17.93;;;;;;;12.94;48.31;101967.94;5110455;27;20435;-72
2022/12/05 05:11:12;;;;;;;35.10;16.37;;;;;;;13.07;47.98;101961.75;5112428;27;20550;-72
2022/12/05 05:13:37;;;;;;;38.50;17.50;;;;;;;13.57;47.13;101961.63;5111279;28;20031;-72
2022/12/05 05:16:03;;;;;;;44.60;20.23;;;;;;;12.59;50.08;101962.72;5107285;27;20031;-72
2022/12/05 05:18:29;;;;;;;51.03;18.17;;;;;;;12.51;49.48;101957.47;5109958;27;20031;-72
2022/12/05 05:20:55;;;;;;;36.90;17.30;;;;;;;12.47;50.07;101958.34;5111836;27;20385;-72
2022/12/05 05:23:20;;;;;;;38.67;18.30;;;;;;;13.33;47.82;101959.97;5110856;27;20118;-72
2022/12/05 05:25:51;;;;;;;41.10;19.47;;;;;;;13.13;48.68;101965.25;5110170;27;20038;-72
2022/12/05 05:28:16;;;;;;;44.93;19.50;;;;;;;13.21;47.85;101963.47;5111343;27;20031;-72
2022/12/05 05:30:42;;;;;;;39.23;17.77;;;;;;;13.10;48.43;101967.91;5110589;27;20066;-71
2022/12/05 05:33:07;;;;;;;37.97;17.67;;;;;;;12.72;49.49;101974.94;5109755;28;20027;-72
2022/12/05 05:35:35;;;;;;;35.77;17.53;;;;;;;12.27;51.07;101977.56;5108692;27;20035;-71
2022/12/05 05:38:00;;;;;;;40.83;17.93;;;;;;;12.88;49.74;101975.81;5110556;28;20124;-73
2022/12/05 05:40:26;;;;;;;38.43;17.57;;;;;;;12.02;50.62;101977.53;5108321;28;20031;-72
2022/12/05 05:42:51;;;;;;;38.10;17.97;;;;;;;12.51;50.38;101981.06;5126871;28;20505;-72
2022/12/05 05:45:17;;;;;;;39.27;18.20;;;;;;;13.49;47.36;101980.06;5112751;28;20047;-72
2022/12/05 05:47:43;;;;;;;37.60;18.00;;;;;;;13.36;48.26;101978.34;5106571;28;20051;-72
2022/12/05 05:50:09;;;;;;;42.47;16.80;;;;;;;12.01;50.11;101986.25;5100702;28;20077;-72
2022/12/05 05:52:36;;;;;;;40.80;17.77;;;;;;;12.21;50.65;101982.78;5103972;28;20051;-72
2022/12/05 05:55:03;;;;;;;43.03;18.03;;;;;;;11.97;52.47;101981.88;5095069;28;20051;-71
2022/12/05 05:57:29;;;;;;;38.43;18.07;;;;;;;13.32;48.63;101984.47;5110052;28;20449;-72
2022/12/05 05:59:54;;;;;;;39.93;17.33;;;;;;;13.39;48.05;101979.22;5111831;28;20555;-72
2022/12/05 06:02:20;;;;;;;42.70;18.80;;;;;;;13.70;47.59;101984.34;5125817;27;20047;-72
2022/12/05 06:04:46;;;;;;;38.13;17.83;;;;;;;13.40;48.08;101980.09;5115777;27;20034;-72
2022/12/05 06:07:11;;;;;;;38.03;17.43;;;;;;;13.69;47.26;101981.72;5115493;27;20035;-72
2022/12/05 06:09:37;;;;;;;38.20;17.77;;;;;;;13.74;47.79;101985.22;5114744;27;20381;-72
2022/12/05 06:12:02;;;;;;;37.63;17.77;;;;;;;13.79;47.14;101980.78;5133268;27;20023;-72
2022/12/05 06:14:28;;;;;;;37.80;18.03;;;;;;;13.90;47.02;101980.72;5116192;27;20027;-71
2022/12/05 06:16:53;;;;;;;40.40;18.60;;;;;;;13.30;49.13;101986.19;5116090;27;20527;-72
2022/12/05 06:19:18;;;;;;;43.77;18.63;;;;;;;13.20;48.45;101990.59;5115836;27;20510;-72
2022/12/05 06:21:44;;;;;;;41.43;19.23;;;;;;;13.22;49.60;101986.25;5115320;27;20111;-72
2022/12/05 06:24:09;;;;;;;38.40;17.30;;;;;;;12.57;50.45;101986.34;5115014;27;20039;-72
2022/12/05 06:26:35;;;;;;;41.87;19.10;;;;;;;13.18;49.69;101989.75;5133510;27;20027;-72
2022/12/05 06:29:00;;;;;;;41.40;18.63;;;;;;;13.54;48.17;101983.53;5132171;27;20042;-72
2022/12/05 06:31:27;;;;;;;38.43;18.23;;;;;;;13.24;48.70;101981.84;5113663;27;20026;-72
2022/12/05 06:33:53;;;;;;;43.43;19.13;;;;;;;13.96;47.33;101985.06;5115861;27;20028;-72
2022/12/05 06:36:20;;;;;;;42.77;18.47;;;;;;;13.34;47.89;101980.06;5114276;27;20031;-72
2022/12/05 06:38:46;;;;;;;39.57;17.97;;;;;;;13.31;49.04;101991.47;5115846;27;20470;-72
2022/12/05 06:41:15;;;;;;;37.17;17.80;;;;;;;13.22;48.37;101991.50;5112191;27;20030;-72
2022/12/05 06:43:41;;;;;;;39.83;18.77;;;;;;;13.22;48.82;101984.47;5107653;27;20110;-72
2022/12/05 06:46:08;;;;;;;37.70;17.97;;;;;;;13.37;49.01;101990.63;5111543;27;20447;-72
2022/12/05 06:48:34;;;;;;;43.30;19.97;;;;;;;13.14;49.82;101988.88;5113256;27;20027;-73
2022/12/05 06:50:59;;;;;;;39.20;18.70;;;;;;;14.03;47.36;101986.81;5114464;27;20447;-73
2022/12/05 06:53:25;;;;;;;42.93;19.87;;;;;;;13.25;49.02;101999.34;5113221;27;20523;-73
2022/12/05 06:55:58;;;;;;;46.03;19.33;;;;;;;12.27;51.73;101995.91;5132282;27;20027;-72
2022/12/05 06:58:24;;;;;;;;;;;;;;;13.22;48.79;102000.22;5113360;27;20374;-72
2022/12/05 07:03:33;;;;;;;45.67;20.07;;;;;;;13.17;50.00;102009.00;5127365;27;20087;-72
2022/12/05 07:06:00;;;;;;;39.40;17.80;;;;;;;13.26;48.81;102013.34;5133352;27;20472;-72
2022/12/05 07:08:25;;;;;;;42.23;17.23;;;;;;;12.36;52.32;102009.03;5116103;27;20030;-72
2022/12/05 07:10:51;;;;;;;47.83;17.57;;;;;;;13.58;49.23;102008.03;5112535;27;20266;-72
2022/12/05 07:13:17;;;;;;;40.93;18.60;;;;;;;13.10;49.11;102007.28;5132990;27;20038;-72
2022/12/05 07:15:45;;;;;;;42.13;18.17;;;;;;;13.06;49.79;102011.63;5107219;27;20031;-72
2022/12/05 07:18:11;;;;;;;41.73;18.40;;;;;;;14.25;47.09;102014.69;5115268;27;20646;-72
2022/12/05 07:20:36;;;;;;;44.03;18.73;;;;;;;13.70;48.65;102015.00;5113286;27;20054;-72
2022/12/05 07:23:01;;;;;;;41.17;18.47;;;;;;;13.99;47.56;102012.22;5114263;27;20064;-72
2022/12/05 07:25:27;;;;;;;42.57;18.73;;;;;;;12.91;50.13;102020.41;5109900;27;20042;-72
2022/12/05 07:27:52;;;;;;;41.17;18.67;;;;;;;13.44;48.60;102012.47;5131789;27;20031;-72
2022/12/05 07:30:17;;;;;;;38.33;16.33;;;;;;;11.66;52.64;102030.63;5110342;27;20470;-71
2022/12/05 07:32:43;;;;;;;39.23;17.90;;;;;;;13.29;50.05;102016.84;5111464;27;20029;-72
2022/12/05 07:35:08;;;;;;;45.20;19.33;;;;;;;14.07;47.79;102023.56;5121252;27;20068;-72
2022/12/05 07:37:34;;;;;;;39.03;17.53;;;;;;;13.80;48.25;102026.34;5104000;28;20032;-72
2022/12/05 07:39:59;;;;;;;35.27;16.80;;;;;;;14.04;47.95;102023.59;5100875;27;20059;-73
2022/12/05 07:42:25;;;;;;;40.77;18.00;;;;;;;13.50;49.37;102021.19;5104863;27;20026;-72
2022/12/05 07:44:50;;;;;;;35.97;17.00;;;;;;;14.68;46.48;102017.94;5125174;27;20079;-73
2022/12/05 07:47:16;;;;;;;35.23;16.30;;;;;;;13.51;48.42;102019.44;5128828;27;20112;-73
2022/12/05 07:49:41;;;;;;;31.03;15.77;;;;;;;13.97;48.37;102024.50;5105742;28;20027;-73
2022/12/05 07:52:08;;;;;;;34.20;16.57;;;;;;;13.86;48.98;102036.81;5127371;27;20023;-72
2022/12/05 07:54:33;;;;;;;33.30;15.77;;;;;;;13.79;47.80;102040.34;5124372;27;20023;-72
2022/12/05 07:56:59;;;;;;;33.13;16.27;;;;;;;13.66;48.49;102035.16;5130653;27;20030;-73
2022/12/05 07:59:24;;;;;;;33.50;15.83;;;;;;;14.53;46.91;102039.94;5117613;27;20050;-72
2022/12/05 08:01:49;;;;;;;28.33;15.27;;;;;;;14.15;47.54;102035.78;5113486;27;20066;-73
2022/12/05 08:04:15;;;;;;;28.87;14.73;;;;;;;13.31;50.35;102033.50;5108875;27;20031;-73
2022/12/05 08:06:40;;;;;;;26.30;12.43;;;;;;;11.99;53.34;102048.28;5105332;27;20526;-72
2022/12/05 08:09:06;;;;;;;25.20;14.20;;;;;;;13.28;50.79;102036.09;5110130;27;20457;-72
2022/12/05 08:11:35;;;;;;;26.77;14.17;;;;;;;13.15;50.46;102044.91;5105216;27;20073;-72
2022/12/05 08:14:03;;;;;;;30.33;14.27;;;;;;;13.90;48.89;102039.44;5102929;27;20482;-71
2022/12/05 08:16:29;;;;;;;28.17;14.70;;;;;;;14.07;48.20;102044.59;5101390;27;20072;-71
2022/12/05 08:18:56;;;;;;;29.53;14.70;;;;;;;14.06;48.79;102041.97;5123067;27;20027;-71
2022/12/05 08:21:23;;;;;;;28.23;13.87;;;;;;;12.97;51.87;102049.28;5124587;27;20027;-71
2022/12/05 08:23:49;;;;;;;24.67;13.60;;;;;;;13.91;49.16;102050.81;5130404;27;20027;-71
2022/12/05 08:26:19;;;;;;;24.00;13.70;;;;;;;13.91;48.89;102045.56;5111995;27;20085;-70
2022/12/05 08:28:44;;;;;;;29.87;13.40;;;;;;;12.07;54.00;102052.66;5125929;27;20019;-71
2022/12/05 08:31:15;;;;;;;28.23;14.60;;;;;;;13.39;50.60;102044.88;5107359;27;20031;-70
2022/12/05 08:33:41;;;;;;;26.23;14.07;;;;;;;12.42;52.28;102054.47;5106686;27;20467;-70
2022/12/05 08:36:10;;;;;;;23.70;13.30;;;;;;;13.12;51.24;102047.50;5107045;27;20128;-71
2022/12/05 08:38:36;;;;;;;24.13;13.27;;;;;;;13.70;49.96;102057.91;5108023;27;21479;-71
2022/12/05 08:41:03;;;;;;;27.63;13.27;;;;;;;12.76;51.89;102059.78;5122010;27;20110;-71
2022/12/05 08:43:29;;;;;;;28.30;14.20;;;;;;;13.47;50.59;102063.22;5106163;27;20031;-71
2022/12/05 08:45:55;;;;;;;24.40;13.70;;;;;;;13.39;50.91;102063.25;5110360;27;20364;-71
2022/12/05 08:48:22;;;;;;;24.47;12.60;;;;;;;12.71;51.47;102057.16;5111556;27;20031;-71
2022/12/05 08:50:47;;;;;;;23.17;13.73;;;;;;;13.50;51.40;102064.97;5111562;27;20084;-71
2022/12/05 08:53:13;;;;;;;32.67;15.17;;;;;;;12.33;52.27;102071.94;5103292;27;20416;-70
2022/12/05 08:55:38;;;;;;;29.10;15.70;;;;;;;13.61;50.46;102063.19;5126655;27;20114;-71
2022/12/05 08:58:04;;;;;;;24.83;13.47;;;;;;;13.11;50.37;102067.63;5125440;27;20509;-71
2022/12/05 09:00:30;;;;;;;21.67;12.67;;;;;;;13.64;50.77;102068.44;5110604;27;20055;-71
2022/12/05 09:02:56;;;;;;;23.00;11.73;;;;;;;13.30;49.46;102078.09;5130523;27;20035;-71
2022/12/05 09:05:22;;;;;;;25.27;14.47;;;;;;;14.04;48.99;102070.91;5110505;27;20046;-71
2022/12/05 09:07:48;;;;;;;23.40;13.63;;;;;;;14.49;48.23;102069.78;5109984;27;20104;-71
2022/12/05 09:10:14;;;;;;;24.97;13.87;;;;;;;13.09;51.37;102069.38;5111100;27;20066;-71
2022/12/05 09:12:39;;;;;;;20.00;12.37;;;;;;;13.76;49.21;102066.66;5122794;27;20119;-71
2022/12/05 09:15:06;;;;;;;26.73;13.97;;;;;;;14.31;48.15;102076.03;5113856;27;20059;-70
2022/12/05 09:17:32;;;;;;;26.20;14.30;;;;;;;14.46;47.97;102075.06;5131212;27;20034;-71
2022/12/05 09:19:57;;;;;;;23.00;12.77;;;;;;;14.60;47.38;102083.72;5130072;27;20390;-71
2022/12/05 09:22:23;;;;;;;22.67;13.00;;;;;;;14.86;46.46;102077.44;5103765;27;20394;-71
2022/12/05 09:24:48;;;;;;;23.23;11.90;;;;;;;14.52;47.43;102080.28;5129389;27;20027;-71
2022/12/05 09:27:14;;;;;;;21.97;13.13;;;;;;;14.93;46.44;102087.03;5129241;27;20035;-71
2022/12/05 09:29:40;;;;;;;20.90;11.50;;;;;;;15.20;46.11;102087.69;5107334;27;20032;-71
2022/12/05 09:32:05;;;;;;;18.07;11.30;;;;;;;14.71;46.18;102087.22;5107824;27;20034;-71
2022/12/05 09:34:30;;;;;;;20.10;11.47;;;;;;;13.95;48.72;102091.97;5096105;28;20398;-71
2022/12/05 09:36:56;;;;;;;26.67;13.07;;;;;;;15.09;46.46;102088.63;5099619;28;20023;-71
2022/12/05 09:39:22;;;;;;;25.40;12.27;;;;;;;15.35;45.59;102094.56;5123547;27;20039;-71
2022/12/05 09:42:25;;;;;;;30.43;13.37;;;;;;;15.28;45.66;102093.75;5124081;27;20102;-71
2022/12/05 09:45:09;;;;;;;26.50;13.05;;;;;;;14.34;47.93;102100.56;5111923;28;20096;-71
2022/12/05 09:47:56;;;;;;;31.50;12.60;;;;;;;13.13;50.89;102107.00;5111862;27;20027;-71
2022/12/05 09:50:29;;;;;;;22.33;10.77;;;;;;;14.25;47.80;102103.25;5130118;28;20031;-71
2022/12/05 09:53:22;;;;;;;19.52;9.73;;;;;;;15.00;46.65;102104.53;5107418;28;20032;-71
2022/12/05 09:56:05;;;;;;;17.90;10.67;;;;;;;14.55;47.32;102111.84;5118984;28;20478;-71
2022/12/05 09:58:44;;;;;;;14.32;9.52;;;;;;;14.88;46.97;102115.16;5109284;27;20079;-71
2022/12/05 10:01:26;;;;;;;14.93;9.43;;;;;;;14.94;46.90;102115.09;5112178;28;20051;-71
2022/12/05 10:04:38;;;;;;;18.17;9.50;;;;;;;15.34;45.09;102103.34;5112024;28;20119;-71
2022/12/05 10:07:14;;;;;;;14.10;8.90;;;;;;;15.09;46.21;102104.44;5112354;28;20374;-71
2022/12/05 10:09:54;;;;;;;12.93;8.80;;;;;;;14.13;48.75;102108.56;5111292;28;20031;-71
2022/12/05 10:12:50;;;;;;;13.10;8.93;;;;;;;15.29;46.06;102106.03;5111829;28;20062;-71
2022/12/05 10:15:51;;;;;;;13.03;8.90;;;;;;;14.62;46.92;102113.53;5109685;28;20064;-71
2022/12/05 10:18:26;;;;;;;14.63;8.83;;;;;;;14.02;48.99;102106.84;5112700;28;20483;-71
2022/12/05 10:21:09;;;;;;;14.13;9.10;;;;;;;13.93;48.28;102104.25;5095474;28;20023;-72
2022/12/05 10:23:51;;;;;;;13.70;8.40;;;;;;;15.23;46.62;102106.06;5130734;27;20095;-71
2022/12/05 10:26:16;;;;;;;16.37;8.67;;;;;;;14.71;47.17;102108.25;5111962;28;20027;-71
2022/12/05 10:29:11;;;;;;;13.27;8.67;;;;;;;15.17;46.44;102108.78;5128154;28;20030;-71
2022/12/05 10:31:39;;;;;;;14.93;8.50;;;;;;;14.34;48.75;102107.56;5122433;28;20547;-71
2022/12/05 10:34:16;;;;;;;14.43;7.80;;;;;;;14.00;49.43;102111.25;5130085;28;20031;-71
2022/12/05 10:36:54;;;;;;;15.83;9.40;;;;;;;15.31;46.25;102106.88;5110660;28;20075;-71
2022/12/05 10:39:19;;;;;;;15.53;8.73;;;;;;;15.35;46.35;102105.09;5104309;28;20125;-71
2022/12/05 10:41:45;;;;;;;14.23;8.80;;;;;;;15.43;45.73;102106.75;5104697;28;20126;-70
2022/12/05 10:44:10;;;;;;;11.77;7.13;;;;;;;15.18;46.57;102103.50;5111409;28;20558;-71
2022/12/05 10:46:35;;;;;;;11.43;7.80;;;;;;;15.56;45.10;102109.25;5110710;28;20027;-71
2022/12/05 10:49:01;;;;;;;10.07;7.47;;;;;;;14.41;47.67;102107.53;5106738;27;20027;-71
2022/12/05 10:51:28;;;;;;;10.77;7.53;;;;;;;13.64;50.74;102110.50;5104702;27;20027;-70
2022/12/05 10:53:53;;;;;;;11.70;7.47;;;;;;;14.44;48.41;102104.00;5115396;27;20030;-71
2022/12/05 10:56:40;;;;;;;11.63;7.60;;;;;;;13.12;51.73;102105.25;5131637;27;20023;-71
2022/12/05 10:59:12;;;;;;;11.90;7.30;;;;;;;14.16;49.85;102103.28;5095825;28;20019;-70
2022/12/05 11:01:44;;;;;;;10.43;7.18;;;;;;;14.04;50.16;102101.56;5103867;27;20043;-71
2022/12/05 11:04:21;;;;;;;10.52;7.35;;;;;;;14.54;48.83;102104.84;5128634;27;20436;-70
2022/12/05 11:06:56;;;;;;;10.80;7.53;;;;;;;14.05;50.29;102092.81;5106634;27;20067;-71
2022/12/05 11:09:27;;;;;;;10.97;7.60;;;;;;;14.98;47.44;102103.66;5130949;27;20088;-71
2022/12/05 11:12:05;;;;;;;14.33;9.07;;;;;;;15.07;47.60;102090.41;5109117;27;20031;-71
2022/12/05 11:14:32;;;;;;;12.27;8.37;;;;;;;14.80;47.72;102095.91;5102845;27;20066;-71
2022/12/05 11:16:59;;;;;;;13.33;7.90;;;;;;;15.08;47.58;102091.28;5107888;27;20030;-71
2022/12/05 11:19:32;;;;;;;11.53;7.13;;;;;;;14.80;48.38;102093.28;5109671;27;20027;-71
2022/12/05 11:21:58;;;;;;;;;;;;;;;15.10;48.19;102095.66;5115156;27;20062;-71
2022/12/05 11:24:37;;;;;;;13.87;7.20;;;;;;;14.85;48.00;102094.09;5111965;27;19935;-71
2022/12/05 11:27:15;;;;;;;10.87;6.63;;;;;;;14.46;48.70;102093.47;5126593;27;20027;-71
2022/12/05 11:29:41;;;;;;;10.33;6.40;;;;;;;14.16;50.58;102098.88;5109649;27;20062;-71
2022/12/05 11:32:20;;;;;;;12.60;6.53;;;;;;;14.91;48.40;102099.34;5112549;27;20023;-71
2022/12/05 11:34:52;;;;;;;10.03;6.40;;;;;;;14.59;48.65;102097.78;5113558;27;20530;-71